Jarl — SFB6983 — position and weather

sailwx.info

Track history (hours):
 
Tides and Currents Weather Stations Pressure Air Temp Water Temp Dewpoint Dewpoint Depression Visibility Wind Speed Wind Dir Waves Ship Positions

Jarl

Last reported at 2017-Jan-20 07:12 UTC. Time now 2017-Jan-23 02:25 UTC.
Position N 59°21' E 018°08'.

Length 13 m.

Type: Port tender. MMSI: 265671980.

Date/timePositionNaut miles runAvg speedWind from/ knotsBaromVisibWave heightAir tempDewpointWater temp
2017-Jan-20 07:12N 59°21' E 018°08'0 0.0
2017-Jan-20 06:30N 59°21' E 018°08'0 0.0
2017-Jan-20 05:33N 59°21' E 018°08'0 0.0
2017-Jan-20 04:33N 59°21' E 018°08'0 0.0
2017-Jan-20 03:33N 59°21' E 018°08'0 0.0
2017-Jan-20 02:33N 59°21' E 018°08'0 0.0
2017-Jan-20 01:33N 59°21' E 018°08'0 0.0
2017-Jan-20 00:30N 59°21' E 018°08'0 0.0
2017-Jan-19 23:33N 59°21' E 018°08'0 0.0
2017-Jan-19 22:33N 59°21' E 018°08'0 0.0
2017-Jan-19 21:33N 59°21' E 018°08'0 0.0
2017-Jan-19 20:33N 59°21' E 018°08'0 0.0
2017-Jan-19 19:33N 59°21' E 018°08'0 0.0
2017-Jan-19 18:33N 59°21' E 018°08'0 0.0
2017-Jan-19 17:24N 59°21' E 018°08'0 0.0
2017-Jan-19 16:33N 59°21' E 018°08'0 0.0
2017-Jan-19 15:33N 59°21' E 018°08'0 0.0
2017-Jan-19 14:33N 59°21' E 018°08'0 0.0
2017-Jan-19 13:30N 59°21' E 018°08'0 0.0
2017-Jan-19 12:33N 59°21' E 018°08'0 0.0
2017-Jan-19 11:33N 59°21' E 018°08'0 0.0
2017-Jan-19 10:33N 59°21' E 018°08'0 0.0
2017-Jan-19 09:30N 59°21' E 018°08'0 0.0
2017-Jan-18 14:32N 59°21' E 018°08'0 0.2
2017-Jan-18 13:34N 59°21' E 018°07'0 0.1
2017-Jan-18 12:26N 59°21' E 018°07'0 0.0
2017-Jan-18 11:32N 59°21' E 018°07'0 0.0
2017-Jan-18 10:31N 59°21' E 018°07'0 0.1
2017-Jan-18 09:31N 59°21' E 018°07'0 0.2
2017-Jan-18 08:31N 59°21' E 018°08'0 0.3
2017-Jan-18 07:31N 59°21' E 018°07'0 0.3
2017-Jan-18 06:29N 59°21' E 018°08'0 0.0
2017-Jan-17 10:33N 59°20' E 018°09'1 1.4
2017-Jan-17 09:33N 59°19' E 018°07'1 1.4
2017-Jan-17 08:32N 59°21' E 018°08'0 0.0
2017-Jan-17 07:32N 59°21' E 018°08'1 1.4
2017-Jan-17 06:33N 59°19' E 018°07'  
2017-Jan-12 13:27N 59°21' E 018°08'0 0.0
2017-Jan-12 12:33N 59°21' E 018°08'3 2.9
2017-Jan-12 11:30N 59°23' E 018°05'0 0.0
2017-Jan-12 10:29N 59°23' E 018°05'0 0.0
2017-Jan-12 09:20N 59°23' E 018°05'0 0.0
2017-Jan-12 08:29N 59°23' E 018°05'1 0.7
2017-Jan-12 07:33N 59°23' E 018°06'2 2.0
2017-Jan-12 06:23N 59°21' E 018°08'0 0.0
2017-Jan-12 05:33N 59°21' E 018°08'0 0.0
2017-Jan-12 04:33N 59°21' E 018°08'0 0.0
2017-Jan-12 03:33N 59°21' E 018°08'0 0.0
2017-Jan-12 02:33N 59°21' E 018°08'0 0.0
2017-Jan-12 01:33N 59°21' E 018°08'0 0.0
2017-Jan-12 00:33N 59°21' E 018°08'0 0.0
2017-Jan-11 23:33N 59°21' E 018°08'0 0.0
2017-Jan-11 22:33N 59°21' E 018°08'0 0.0
2017-Jan-11 21:30N 59°21' E 018°08'0 0.0
2017-Jan-11 20:33N 59°21' E 018°08'0 0.0
2017-Jan-11 19:33N 59°21' E 018°08'0 0.0
2017-Jan-11 18:33N 59°21' E 018°08'0 0.0
2017-Jan-11 17:33N 59°21' E 018°08'0 0.0
2017-Jan-11 16:33N 59°21' E 018°08'0 0.0
2017-Jan-11 15:33N 59°21' E 018°08'0 0.0
2017-Jan-11 14:33N 59°21' E 018°08'0 0.0
2017-Jan-11 13:33N 59°21' E 018°08'0 0.0
2017-Jan-11 12:33N 59°21' E 018°08'0 0.0
2017-Jan-11 11:33N 59°21' E 018°08'2 0.5
2017-Jan-11 08:33N 59°19' E 018°09'3 2.7
2017-Jan-11 07:33N 59°18' E 018°04'3 3.3
2017-Jan-11 06:33N 59°20' E 018°09'1 0.1
2017-Jan-10 13:33N 59°21' E 018°08'0 0.1
2017-Jan-10 12:30N 59°21' E 018°08'0 0.0
2017-Jan-10 11:30N 59°21' E 018°08'0 0.0
2017-Jan-10 10:33N 59°21' E 018°08'0 0.0
2017-Jan-10 09:32N 59°21' E 018°08'0 0.0
2017-Jan-10 08:32N 59°21' E 018°08'0 0.4
2017-Jan-10 07:28N 59°21' E 018°07'  
Track history (hours):
 
Tides and Currents Weather Stations Pressure Air Temp Water Temp Dewpoint Dewpoint Depression Visibility Wind Speed Wind Dir Waves Ship Positions

Jarl

Last reported at 2017-Jan-20 07:12 UTC. Time now 2017-Jan-23 02:25 UTC.
Position N 59°21' E 018°08'.

Length 13 m.

Type: Port tender. MMSI: 265671980.

Date/timePositionNaut miles runAvg speedWind from/ knotsBaromVisibWave heightAir tempDewpointWater temp
2017-Jan-20 07:12N 59°21' E 018°08'0 0.0
2017-Jan-20 06:30N 59°21' E 018°08'0 0.0
2017-Jan-20 05:33N 59°21' E 018°08'0 0.0
2017-Jan-20 04:33N 59°21' E 018°08'0 0.0
2017-Jan-20 03:33N 59°21' E 018°08'0 0.0
2017-Jan-20 02:33N 59°21' E 018°08'0 0.0
2017-Jan-20 01:33N 59°21' E 018°08'0 0.0
2017-Jan-20 00:30N 59°21' E 018°08'0 0.0
2017-Jan-19 23:33N 59°21' E 018°08'0 0.0
2017-Jan-19 22:33N 59°21' E 018°08'0 0.0
2017-Jan-19 21:33N 59°21' E 018°08'0 0.0
2017-Jan-19 20:33N 59°21' E 018°08'0 0.0
2017-Jan-19 19:33N 59°21' E 018°08'0 0.0
2017-Jan-19 18:33N 59°21' E 018°08'0 0.0
2017-Jan-19 17:24N 59°21' E 018°08'0 0.0
2017-Jan-19 16:33N 59°21' E 018°08'0 0.0
2017-Jan-19 15:33N 59°21' E 018°08'0 0.0
2017-Jan-19 14:33N 59°21' E 018°08'0 0.0
2017-Jan-19 13:30N 59°21' E 018°08'0 0.0
2017-Jan-19 12:33N 59°21' E 018°08'0 0.0
2017-Jan-19 11:33N 59°21' E 018°08'0 0.0
2017-Jan-19 10:33N 59°21' E 018°08'0 0.0
2017-Jan-19 09:30N 59°21' E 018°08'0 0.0
2017-Jan-18 14:32N 59°21' E 018°08'0 0.2
2017-Jan-18 13:34N 59°21' E 018°07'0 0.1
2017-Jan-18 12:26N 59°21' E 018°07'0 0.0
2017-Jan-18 11:32N 59°21' E 018°07'0 0.0
2017-Jan-18 10:31N 59°21' E 018°07'0 0.1
2017-Jan-18 09:31N 59°21' E 018°07'0 0.2
2017-Jan-18 08:31N 59°21' E 018°08'0 0.3
2017-Jan-18 07:31N 59°21' E 018°07'0 0.3
2017-Jan-18 06:29N 59°21' E 018°08'0 0.0
2017-Jan-17 10:33N 59°20' E 018°09'1 1.4
2017-Jan-17 09:33N 59°19' E 018°07'1 1.4
2017-Jan-17 08:32N 59°21' E 018°08'0 0.0
2017-Jan-17 07:32N 59°21' E 018°08'1 1.4
2017-Jan-17 06:33N 59°19' E 018°07'  
2017-Jan-12 13:27N 59°21' E 018°08'0 0.0
2017-Jan-12 12:33N 59°21' E 018°08'3 2.9
2017-Jan-12 11:30N 59°23' E 018°05'0 0.0
2017-Jan-12 10:29N 59°23' E 018°05'0 0.0
2017-Jan-12 09:20N 59°23' E 018°05'0 0.0
2017-Jan-12 08:29N 59°23' E 018°05'1 0.7
2017-Jan-12 07:33N 59°23' E 018°06'2 2.0
2017-Jan-12 06:23N 59°21' E 018°08'0 0.0
2017-Jan-12 05:33N 59°21' E 018°08'0 0.0
2017-Jan-12 04:33N 59°21' E 018°08'0 0.0
2017-Jan-12 03:33N 59°21' E 018°08'0 0.0
2017-Jan-12 02:33N 59°21' E 018°08'0 0.0
2017-Jan-12 01:33N 59°21' E 018°08'0 0.0
2017-Jan-12 00:33N 59°21' E 018°08'0 0.0
2017-Jan-11 23:33N 59°21' E 018°08'0 0.0
2017-Jan-11 22:33N 59°21' E 018°08'0 0.0
2017-Jan-11 21:30N 59°21' E 018°08'0 0.0
2017-Jan-11 20:33N 59°21' E 018°08'0 0.0
2017-Jan-11 19:33N 59°21' E 018°08'0 0.0
2017-Jan-11 18:33N 59°21' E 018°08'0 0.0
2017-Jan-11 17:33N 59°21' E 018°08'0 0.0
2017-Jan-11 16:33N 59°21' E 018°08'0 0.0
2017-Jan-11 15:33N 59°21' E 018°08'0 0.0
2017-Jan-11 14:33N 59°21' E 018°08'0 0.0
2017-Jan-11 13:33N 59°21' E 018°08'0 0.0
2017-Jan-11 12:33N 59°21' E 018°08'0 0.0
2017-Jan-11 11:33N 59°21' E 018°08'2 0.5
2017-Jan-11 08:33N 59°19' E 018°09'3 2.7
2017-Jan-11 07:33N 59°18' E 018°04'3 3.3
2017-Jan-11 06:33N 59°20' E 018°09'1 0.1
2017-Jan-10 13:33N 59°21' E 018°08'0 0.1
2017-Jan-10 12:30N 59°21' E 018°08'0 0.0
2017-Jan-10 11:30N 59°21' E 018°08'0 0.0
2017-Jan-10 10:33N 59°21' E 018°08'0 0.0
2017-Jan-10 09:32N 59°21' E 018°08'0 0.0
2017-Jan-10 08:32N 59°21' E 018°08'0 0.4
2017-Jan-10 07:28N 59°21' E 018°07'  

Dump ship's entire track history